sensor_id;sensor_type;location;lat;lon;timestamp;temperature;humidity
3488;DHT22;38546;48.170;11.724;2023-05-16T00:00:21;12.00;99.90
3488;DHT22;38546;48.170;11.724;2023-05-16T00:03:12;12.00;99.90
3488;DHT22;38546;48.170;11.724;2023-05-16T00:06:00;12.20;99.90
3488;DHT22;38546;48.170;11.724;2023-05-16T00:08:50;12.20;99.90
3488;DHT22;38546;48.170;11.724;2023-05-16T00:11:39;12.10;99.90
3488;DHT22;38546;48.170;11.724;2023-05-16T00:14:28;12.20;99.90
3488;DHT22;38546;48.170;11.724;2023-05-16T00:17:18;12.10;99.90
3488;DHT22;38546;48.170;11.724;2023-05-16T00:20:08;12.00;99.90
3488;DHT22;38546;48.170;11.724;2023-05-16T00:23:02;11.90;99.90
3488;DHT22;38546;48.170;11.724;2023-05-16T00:25:51;11.80;99.90
3488;DHT22;38546;48.170;11.724;2023-05-16T00:28:40;11.80;99.90
3488;DHT22;38546;48.170;11.724;2023-05-16T00:31:29;11.80;99.90
3488;DHT22;38546;48.170;11.724;2023-05-16T00:34:18;11.90;99.90
3488;DHT22;38546;48.170;11.724;2023-05-16T00:37:09;11.90;99.90
3488;DHT22;38546;48.170;11.724;2023-05-16T00:39:58;11.90;99.90
3488;DHT22;38546;48.170;11.724;2023-05-16T00:42:47;11.80;99.90
3488;DHT22;38546;48.170;11.724;2023-05-16T00:45:36;11.90;99.90
3488;DHT22;38546;48.170;11.724;2023-05-16T00:48:26;11.80;99.90
3488;DHT22;38546;48.170;11.724;2023-05-16T00:51:16;11.80;99.90
3488;DHT22;38546;48.170;11.724;2023-05-16T00:54:06;11.80;99.90
3488;DHT22;38546;48.170;11.724;2023-05-16T00:56:56;11.90;99.90
3488;DHT22;38546;48.170;11.724;2023-05-16T00:59:46;11.80;99.90
3488;DHT22;38546;48.170;11.724;2023-05-16T01:02:36;11.80;99.90
3488;DHT22;38546;48.170;11.724;2023-05-16T01:05:25;11.80;99.90
3488;DHT22;38546;48.170;11.724;2023-05-16T01:08:14;11.80;99.90
3488;DHT22;38546;48.170;11.724;2023-05-16T01:15:21;11.80;99.90
3488;DHT22;38546;48.170;11.724;2023-05-16T01:22:10;11.80;99.90
3488;DHT22;38546;48.170;11.724;2023-05-16T01:26:26;11.80;99.90
3488;DHT22;38546;48.170;11.724;2023-05-16T01:29:16;11.80;99.90
3488;DHT22;38546;48.170;11.724;2023-05-16T01:32:06;11.80;99.90
3488;DHT22;38546;48.170;11.724;2023-05-16T01:34:55;11.70;99.90
3488;DHT22;38546;48.170;11.724;2023-05-16T01:37:49;11.70;99.90
3488;DHT22;38546;48.170;11.724;2023-05-16T01:41:01;11.60;99.90
3488;DHT22;38546;48.170;11.724;2023-05-16T01:43:58;11.60;99.90
3488;DHT22;38546;48.170;11.724;2023-05-16T01:46:53;11.70;99.90
3488;DHT22;38546;48.170;11.724;2023-05-16T01:50:07;11.70;99.90
3488;DHT22;38546;48.170;11.724;2023-05-16T01:53:05;11.70;99.90
3488;DHT22;38546;48.170;11.724;2023-05-16T01:55:57;11.60;99.90
3488;DHT22;38546;48.170;11.724;2023-05-16T01:58:49;11.60;99.90
3488;DHT22;38546;48.170;11.724;2023-05-16T02:01:39;11.60;99.90
3488;DHT22;38546;48.170;11.724;2023-05-16T02:04:28;11.60;99.90
3488;DHT22;38546;48.170;11.724;2023-05-16T02:07:18;11.60;99.90
3488;DHT22;38546;48.170;11.724;2023-05-16T02:10:08;11.50;99.90
3488;DHT22;38546;48.170;11.724;2023-05-16T02:12:58;11.50;99.90
3488;DHT22;38546;48.170;11.724;2023-05-16T02:15:46;11.50;99.90
3488;DHT22;38546;48.170;11.724;2023-05-16T02:18:35;11.60;99.90
3488;DHT22;38546;48.170;11.724;2023-05-16T02:21:24;11.50;99.90
3488;DHT22;38546;48.170;11.724;2023-05-16T02:24:14;11.50;99.90
3488;DHT22;38546;48.170;11.724;2023-05-16T02:27:03;11.50;99.90
3488;DHT22;38546;48.170;11.724;2023-05-16T02:29:53;11.50;99.90
3488;DHT22;38546;48.170;11.724;2023-05-16T02:32:42;11.50;99.90
3488;DHT22;38546;48.170;11.724;2023-05-16T02:35:32;11.60;99.90
3488;DHT22;38546;48.170;11.724;2023-05-16T02:38:21;11.60;99.90
3488;DHT22;38546;48.170;11.724;2023-05-16T02:41:10;11.50;99.90
3488;DHT22;38546;48.170;11.724;2023-05-16T02:43:59;11.50;99.90
3488;DHT22;38546;48.170;11.724;2023-05-16T02:46:49;11.40;99.90
3488;DHT22;38546;48.170;11.724;2023-05-16T02:49:38;11.50;99.90
3488;DHT22;38546;48.170;11.724;2023-05-16T02:52:27;11.50;99.90
3488;DHT22;38546;48.170;11.724;2023-05-16T02:55:16;11.40;99.90
3488;DHT22;38546;48.170;11.724;2023-05-16T02:58:05;11.30;99.90
3488;DHT22;38546;48.170;11.724;2023-05-16T03:00:54;11.40;99.90
3488;DHT22;38546;48.170;11.724;2023-05-16T03:03:43;11.40;99.90
3488;DHT22;38546;48.170;11.724;2023-05-16T03:06:32;11.40;99.90
3488;DHT22;38546;48.170;11.724;2023-05-16T03:09:21;11.40;99.90
3488;DHT22;38546;48.170;11.724;2023-05-16T03:12:11;11.40;99.90
3488;DHT22;38546;48.170;11.724;2023-05-16T03:15:00;11.30;99.90
3488;DHT22;38546;48.170;11.724;2023-05-16T03:17:49;11.30;99.90
3488;DHT22;38546;48.170;11.724;2023-05-16T03:20:39;11.30;99.90
3488;DHT22;38546;48.170;11.724;2023-05-16T03:23:28;11.30;99.90
3488;DHT22;38546;48.170;11.724;2023-05-16T03:26:17;11.20;99.90
3488;DHT22;38546;48.170;11.724;2023-05-16T03:29:06;11.30;99.90
3488;DHT22;38546;48.170;11.724;2023-05-16T03:31:56;11.30;99.90
3488;DHT22;38546;48.170;11.724;2023-05-16T03:34:45;11.30;99.90
3488;DHT22;38546;48.170;11.724;2023-05-16T03:37:34;11.30;99.90
3488;DHT22;38546;48.170;11.724;2023-05-16T03:40:23;11.30;99.90
3488;DHT22;38546;48.170;11.724;2023-05-16T03:43:13;11.30;99.90
3488;DHT22;38546;48.170;11.724;2023-05-16T03:46:01;11.40;99.90
3488;DHT22;38546;48.170;11.724;2023-05-16T03:48:50;11.30;99.90
3488;DHT22;38546;48.170;11.724;2023-05-16T03:51:40;11.30;99.90
3488;DHT22;38546;48.170;11.724;2023-05-16T03:54:29;11.30;99.90
3488;DHT22;38546;48.170;11.724;2023-05-16T03:57:18;11.30;99.90
3488;DHT22;38546;48.170;11.724;2023-05-16T04:00:08;11.20;99.90
3488;DHT22;38546;48.170;11.724;2023-05-16T04:02:59;11.30;99.90
3488;DHT22;38546;48.170;11.724;2023-05-16T04:05:49;11.30;99.90
3488;DHT22;38546;48.170;11.724;2023-05-16T04:08:38;11.30;99.90
3488;DHT22;38546;48.170;11.724;2023-05-16T04:11:28;11.30;99.90
3488;DHT22;38546;48.170;11.724;2023-05-16T04:14:17;11.30;99.90
3488;DHT22;38546;48.170;11.724;2023-05-16T04:17:06;11.30;99.90
3488;DHT22;38546;48.170;11.724;2023-05-16T04:19:55;11.30;99.90
3488;DHT22;38546;48.170;11.724;2023-05-16T04:22:45;11.20;99.90
3488;DHT22;38546;48.170;11.724;2023-05-16T04:25:35;11.30;99.90
3488;DHT22;38546;48.170;11.724;2023-05-16T04:28:25;11.40;99.90
3488;DHT22;38546;48.170;11.724;2023-05-16T04:31:14;11.40;99.90
3488;DHT22;38546;48.170;11.724;2023-05-16T04:34:04;11.50;99.90
3488;DHT22;38546;48.170;11.724;2023-05-16T04:36:53;11.40;99.90
3488;DHT22;38546;48.170;11.724;2023-05-16T04:39:43;11.30;99.90
3488;DHT22;38546;48.170;11.724;2023-05-16T04:42:32;11.40;99.90
3488;DHT22;38546;48.170;11.724;2023-05-16T04:45:22;11.30;99.90
3488;DHT22;38546;48.170;11.724;2023-05-16T04:48:11;11.30;99.90
3488;DHT22;38546;48.170;11.724;2023-05-16T04:51:01;11.40;99.90
3488;DHT22;38546;48.170;11.724;2023-05-16T04:53:51;11.30;99.90
3488;DHT22;38546;48.170;11.724;2023-05-16T04:56:40;11.30;99.90
3488;DHT22;38546;48.170;11.724;2023-05-16T04:59:29;11.20;99.90
3488;DHT22;38546;48.170;11.724;2023-05-16T05:02:19;11.20;99.90
3488;DHT22;38546;48.170;11.724;2023-05-16T05:05:08;11.20;99.90
3488;DHT22;38546;48.170;11.724;2023-05-16T05:07:58;11.20;99.90
3488;DHT22;38546;48.170;11.724;2023-05-16T05:10:48;11.30;99.90
3488;DHT22;38546;48.170;11.724;2023-05-16T05:13:37;11.20;99.90
3488;DHT22;38546;48.170;11.724;2023-05-16T05:16:26;11.40;99.90
3488;DHT22;38546;48.170;11.724;2023-05-16T05:19:16;11.40;99.90
3488;DHT22;38546;48.170;11.724;2023-05-16T05:22:05;11.40;99.90
3488;DHT22;38546;48.170;11.724;2023-05-16T05:24:54;11.40;99.90
3488;DHT22;38546;48.170;11.724;2023-05-16T05:27:44;11.50;99.90
3488;DHT22;38546;48.170;11.724;2023-05-16T05:30:33;11.50;99.90
3488;DHT22;38546;48.170;11.724;2023-05-16T05:33:26;11.50;99.90
3488;DHT22;38546;48.170;11.724;2023-05-16T05:36:17;11.60;99.90
3488;DHT22;38546;48.170;11.724;2023-05-16T05:39:06;11.60;99.90
3488;DHT22;38546;48.170;11.724;2023-05-16T05:41:55;11.60;99.90
3488;DHT22;38546;48.170;11.724;2023-05-16T05:44:44;11.70;99.90
3488;DHT22;38546;48.170;11.724;2023-05-16T05:47:33;11.60;99.90
3488;DHT22;38546;48.170;11.724;2023-05-16T05:50:22;11.60;99.90
3488;DHT22;38546;48.170;11.724;2023-05-16T05:53:12;11.70;99.90
3488;DHT22;38546;48.170;11.724;2023-05-16T05:56:01;11.70;99.90
3488;DHT22;38546;48.170;11.724;2023-05-16T05:58:50;11.70;99.90
3488;DHT22;38546;48.170;11.724;2023-05-16T06:01:39;11.70;99.90
3488;DHT22;38546;48.170;11.724;2023-05-16T06:04:29;11.70;99.90
3488;DHT22;38546;48.170;11.724;2023-05-16T06:07:18;11.80;99.90
3488;DHT22;38546;48.170;11.724;2023-05-16T06:10:07;11.90;99.90
3488;DHT22;38546;48.170;11.724;2023-05-16T06:12:56;12.00;99.90
3488;DHT22;38546;48.170;11.724;2023-05-16T06:15:53;12.10;99.90
3488;DHT22;38546;48.170;11.724;2023-05-16T06:18:42;12.00;99.90
3488;DHT22;38546;48.170;11.724;2023-05-16T06:21:31;11.90;99.90
3488;DHT22;38546;48.170;11.724;2023-05-16T06:24:21;11.80;99.90
3488;DHT22;38546;48.170;11.724;2023-05-16T06:27:10;11.70;99.90
3488;DHT22;38546;48.170;11.724;2023-05-16T06:29:59;11.50;99.90
3488;DHT22;38546;48.170;11.724;2023-05-16T06:32:48;11.50;99.90
3488;DHT22;38546;48.170;11.724;2023-05-16T06:35:38;11.60;99.90
3488;DHT22;38546;48.170;11.724;2023-05-16T06:38:27;11.70;99.90
3488;DHT22;38546;48.170;11.724;2023-05-16T06:41:16;11.80;99.90
3488;DHT22;38546;48.170;11.724;2023-05-16T06:44:05;11.80;99.90
3488;DHT22;38546;48.170;11.724;2023-05-16T06:46:54;11.90;99.90
3488;DHT22;38546;48.170;11.724;2023-05-16T06:49:43;12.00;99.90
3488;DHT22;38546;48.170;11.724;2023-05-16T06:52:32;12.10;99.90
3488;DHT22;38546;48.170;11.724;2023-05-16T06:55:21;12.10;99.90
3488;DHT22;38546;48.170;11.724;2023-05-16T06:58:11;12.10;99.90
3488;DHT22;38546;48.170;11.724;2023-05-16T07:00:59;12.10;99.90
3488;DHT22;38546;48.170;11.724;2023-05-16T07:03:51;12.10;99.90
3488;DHT22;38546;48.170;11.724;2023-05-16T07:06:40;11.90;99.90
3488;DHT22;38546;48.170;11.724;2023-05-16T07:09:29;11.80;99.90
3488;DHT22;38546;48.170;11.724;2023-05-16T07:12:19;11.70;99.90
3488;DHT22;38546;48.170;11.724;2023-05-16T07:15:09;11.60;99.90
3488;DHT22;38546;48.170;11.724;2023-05-16T07:17:58;11.60;99.90
3488;DHT22;38546;48.170;11.724;2023-05-16T07:20:47;11.50;99.90
3488;DHT22;38546;48.170;11.724;2023-05-16T07:23:36;11.50;99.90
3488;DHT22;38546;48.170;11.724;2023-05-16T07:26:25;11.60;99.90
3488;DHT22;38546;48.170;11.724;2023-05-16T07:29:14;11.60;99.90
3488;DHT22;38546;48.170;11.724;2023-05-16T07:32:04;11.50;99.90
3488;DHT22;38546;48.170;11.724;2023-05-16T07:34:54;11.60;99.90
3488;DHT22;38546;48.170;11.724;2023-05-16T07:37:43;11.60;99.90
3488;DHT22;38546;48.170;11.724;2023-05-16T07:40:32;11.60;99.90
3488;DHT22;38546;48.170;11.724;2023-05-16T07:43:21;11.60;99.90
3488;DHT22;38546;48.170;11.724;2023-05-16T07:46:10;11.70;99.90
3488;DHT22;38546;48.170;11.724;2023-05-16T07:48:59;11.70;99.90
3488;DHT22;38546;48.170;11.724;2023-05-16T07:51:49;11.80;99.90
3488;DHT22;38546;48.170;11.724;2023-05-16T07:54:38;11.80;99.90
3488;DHT22;38546;48.170;11.724;2023-05-16T07:57:28;11.80;99.90
3488;DHT22;38546;48.170;11.724;2023-05-16T08:00:17;11.90;99.90
3488;DHT22;38546;48.170;11.724;2023-05-16T08:03:08;12.00;99.90
3488;DHT22;38546;48.170;11.724;2023-05-16T08:05:57;12.00;99.90
3488;DHT22;38546;48.170;11.724;2023-05-16T08:08:46;12.10;99.90
3488;DHT22;38546;48.170;11.724;2023-05-16T08:11:35;12.00;99.90
3488;DHT22;38546;48.170;11.724;2023-05-16T08:14:25;12.10;99.90
3488;DHT22;38546;48.170;11.724;2023-05-16T08:17:14;12.20;99.90
3488;DHT22;38546;48.170;11.724;2023-05-16T08:20:04;12.20;99.90
3488;DHT22;38546;48.170;11.724;2023-05-16T08:22:55;12.20;99.90
3488;DHT22;38546;48.170;11.724;2023-05-16T08:25:44;12.20;99.90
3488;DHT22;38546;48.170;11.724;2023-05-16T08:28:33;12.10;99.90
3488;DHT22;38546;48.170;11.724;2023-05-16T08:31:22;12.10;99.90
3488;DHT22;38546;48.170;11.724;2023-05-16T08:34:12;12.20;99.90
3488;DHT22;38546;48.170;11.724;2023-05-16T08:37:01;12.30;99.90
3488;DHT22;38546;48.170;11.724;2023-05-16T08:39:50;12.30;99.90
3488;DHT22;38546;48.170;11.724;2023-05-16T08:42:40;12.40;99.90
3488;DHT22;38546;48.170;11.724;2023-05-16T08:45:30;12.50;99.90
3488;DHT22;38546;48.170;11.724;2023-05-16T08:48:22;12.80;99.90
3488;DHT22;38546;48.170;11.724;2023-05-16T08:51:14;12.80;99.90
3488;DHT22;38546;48.170;11.724;2023-05-16T08:54:11;13.00;99.90
3488;DHT22;38546;48.170;11.724;2023-05-16T08:57:04;13.20;99.90
3488;DHT22;38546;48.170;11.724;2023-05-16T08:59:56;13.40;99.90
3488;DHT22;38546;48.170;11.724;2023-05-16T09:02:46;13.60;99.90
3488;DHT22;38546;48.170;11.724;2023-05-16T09:05:36;13.50;99.90
3488;DHT22;38546;48.170;11.724;2023-05-16T09:08:26;13.50;99.90
3488;DHT22;38546;48.170;11.724;2023-05-16T09:11:16;13.70;99.90
3488;DHT22;38546;48.170;11.724;2023-05-16T09:14:05;13.70;99.90
3488;DHT22;38546;48.170;11.724;2023-05-16T09:17:05;13.80;99.90
3488;DHT22;38546;48.170;11.724;2023-05-16T09:19:55;14.00;99.90
3488;DHT22;38546;48.170;11.724;2023-05-16T09:23:05;14.10;99.90
3488;DHT22;38546;48.170;11.724;2023-05-16T09:25:54;14.50;99.90
3488;DHT22;38546;48.170;11.724;2023-05-16T09:28:43;14.50;99.90
3488;DHT22;38546;48.170;11.724;2023-05-16T09:31:33;14.40;99.90
3488;DHT22;38546;48.170;11.724;2023-05-16T09:34:26;14.60;99.90
3488;DHT22;38546;48.170;11.724;2023-05-16T09:37:15;14.50;99.90
3488;DHT22;38546;48.170;11.724;2023-05-16T09:40:07;14.60;99.90
3488;DHT22;38546;48.170;11.724;2023-05-16T09:43:03;14.60;99.90
3488;DHT22;38546;48.170;11.724;2023-05-16T09:45:53;14.60;99.90
3488;DHT22;38546;48.170;11.724;2023-05-16T09:48:47;14.50;99.90
3488;DHT22;38546;48.170;11.724;2023-05-16T09:51:36;14.30;99.90
3488;DHT22;38546;48.170;11.724;2023-05-16T09:54:31;14.50;99.90
3488;DHT22;38546;48.170;11.724;2023-05-16T09:57:21;14.60;99.90
3488;DHT22;38546;48.170;11.724;2023-05-16T10:00:12;14.40;99.90
3488;DHT22;38546;48.170;11.724;2023-05-16T10:03:02;14.10;99.90
3488;DHT22;38546;48.170;11.724;2023-05-16T10:05:55;13.90;99.90
3488;DHT22;38546;48.170;11.724;2023-05-16T10:08:45;13.80;99.90
3488;DHT22;38546;48.170;11.724;2023-05-16T10:11:37;13.80;99.90
3488;DHT22;38546;48.170;11.724;2023-05-16T10:14:33;13.70;99.90
3488;DHT22;38546;48.170;11.724;2023-05-16T10:17:24;13.50;99.90
3488;DHT22;38546;48.170;11.724;2023-05-16T10:20:15;13.40;99.90
3488;DHT22;38546;48.170;11.724;2023-05-16T10:23:05;13.30;99.90
3488;DHT22;38546;48.170;11.724;2023-05-16T10:25:59;13.20;99.90
3488;DHT22;38546;48.170;11.724;2023-05-16T10:28:50;13.20;99.90
3488;DHT22;38546;48.170;11.724;2023-05-16T10:31:40;13.00;99.90
3488;DHT22;38546;48.170;11.724;2023-05-16T10:34:31;12.90;99.90
3488;DHT22;38546;48.170;11.724;2023-05-16T10:37:22;12.90;99.90
3488;DHT22;38546;48.170;11.724;2023-05-16T10:40:12;12.90;99.90
3488;DHT22;38546;48.170;11.724;2023-05-16T10:43:03;12.90;99.90
3488;DHT22;38546;48.170;11.724;2023-05-16T10:45:56;12.90;99.90
3488;DHT22;38546;48.170;11.724;2023-05-16T10:48:50;12.70;99.90
3488;DHT22;38546;48.170;11.724;2023-05-16T10:51:40;12.70;99.90
3488;DHT22;38546;48.170;11.724;2023-05-16T10:54:40;12.60;99.90
3488;DHT22;38546;48.170;11.724;2023-05-16T10:57:32;12.50;99.90
3488;DHT22;38546;48.170;11.724;2023-05-16T11:00:22;12.40;99.90
3488;DHT22;38546;48.170;11.724;2023-05-16T11:03:21;12.30;99.90
3488;DHT22;38546;48.170;11.724;2023-05-16T11:06:20;12.30;99.90
3488;DHT22;38546;48.170;11.724;2023-05-16T11:09:22;12.40;99.90
3488;DHT22;38546;48.170;11.724;2023-05-16T11:12:13;12.40;99.90
3488;DHT22;38546;48.170;11.724;2023-05-16T11:15:20;12.20;99.90
3488;DHT22;38546;48.170;11.724;2023-05-16T11:18:15;12.20;99.90
3488;DHT22;38546;48.170;11.724;2023-05-16T11:21:05;12.20;99.90
3488;DHT22;38546;48.170;11.724;2023-05-16T11:24:26;12.20;99.90
3488;DHT22;38546;48.170;11.724;2023-05-16T11:27:31;12.30;99.90
3488;DHT22;38546;48.170;11.724;2023-05-16T11:30:25;12.40;99.90
3488;DHT22;38546;48.170;11.724;2023-05-16T11:33:15;12.50;99.90
3488;DHT22;38546;48.170;11.724;2023-05-16T11:36:06;12.60;99.90
3488;DHT22;38546;48.170;11.724;2023-05-16T11:39:07;12.70;99.90
3488;DHT22;38546;48.170;11.724;2023-05-16T11:41:58;12.60;99.90
3488;DHT22;38546;48.170;11.724;2023-05-16T11:44:47;12.70;99.90
3488;DHT22;38546;48.170;11.724;2023-05-16T11:47:36;12.90;99.90
3488;DHT22;38546;48.170;11.724;2023-05-16T11:50:26;12.90;99.90
3488;DHT22;38546;48.170;11.724;2023-05-16T11:53:16;13.00;99.90
3488;DHT22;38546;48.170;11.724;2023-05-16T11:56:07;13.00;99.90
3488;DHT22;38546;48.170;11.724;2023-05-16T11:58:58;13.20;99.90
3488;DHT22;38546;48.170;11.724;2023-05-16T12:01:48;13.30;99.90
3488;DHT22;38546;48.170;11.724;2023-05-16T12:04:38;13.40;99.90
3488;DHT22;38546;48.170;11.724;2023-05-16T12:07:28;13.30;99.90
3488;DHT22;38546;48.170;11.724;2023-05-16T12:10:17;13.30;99.90
3488;DHT22;38546;48.170;11.724;2023-05-16T12:13:06;13.40;99.90
3488;DHT22;38546;48.170;11.724;2023-05-16T12:15:56;13.30;99.90
3488;DHT22;38546;48.170;11.724;2023-05-16T12:18:46;13.40;99.90
3488;DHT22;38546;48.170;11.724;2023-05-16T12:21:37;13.50;99.90
3488;DHT22;38546;48.170;11.724;2023-05-16T12:24:30;13.50;99.90
3488;DHT22;38546;48.170;11.724;2023-05-16T12:27:26;13.70;99.90
3488;DHT22;38546;48.170;11.724;2023-05-16T12:30:17;13.80;99.90
3488;DHT22;38546;48.170;11.724;2023-05-16T12:33:11;13.90;99.90
3488;DHT22;38546;48.170;11.724;2023-05-16T12:36:02;14.00;99.90
3488;DHT22;38546;48.170;11.724;2023-05-16T12:38:52;14.10;99.90
3488;DHT22;38546;48.170;11.724;2023-05-16T12:41:42;14.20;99.90
3488;DHT22;38546;48.170;11.724;2023-05-16T12:44:31;14.30;99.90
3488;DHT22;38546;48.170;11.724;2023-05-16T12:47:21;14.40;99.90
3488;DHT22;38546;48.170;11.724;2023-05-16T12:50:11;14.50;99.90
3488;DHT22;38546;48.170;11.724;2023-05-16T12:53:02;14.50;99.90
3488;DHT22;38546;48.170;11.724;2023-05-16T12:55:51;14.70;99.90
3488;DHT22;38546;48.170;11.724;2023-05-16T12:58:41;14.70;99.90
3488;DHT22;38546;48.170;11.724;2023-05-16T13:01:31;14.70;99.90
3488;DHT22;38546;48.170;11.724;2023-05-16T13:04:20;14.80;99.90
3488;DHT22;38546;48.170;11.724;2023-05-16T13:07:10;14.70;99.90
3488;DHT22;38546;48.170;11.724;2023-05-16T13:10:00;14.60;99.90
3488;DHT22;38546;48.170;11.724;2023-05-16T13:12:49;14.50;99.90
3488;DHT22;38546;48.170;11.724;2023-05-16T13:15:39;14.50;99.90
3488;DHT22;38546;48.170;11.724;2023-05-16T13:18:28;14.50;99.90
3488;DHT22;38546;48.170;11.724;2023-05-16T13:21:17;14.60;99.90
3488;DHT22;38546;48.170;11.724;2023-05-16T13:24:06;14.80;99.90
3488;DHT22;38546;48.170;11.724;2023-05-16T13:26:55;14.60;99.90
3488;DHT22;38546;48.170;11.724;2023-05-16T13:29:44;14.70;99.90
3488;DHT22;38546;48.170;11.724;2023-05-16T13:32:33;14.70;99.90
3488;DHT22;38546;48.170;11.724;2023-05-16T13:35:22;14.50;99.90
3488;DHT22;38546;48.170;11.724;2023-05-16T13:38:11;14.30;99.90
3488;DHT22;38546;48.170;11.724;2023-05-16T13:41:01;14.30;99.90
3488;DHT22;38546;48.170;11.724;2023-05-16T13:43:50;14.10;99.90
3488;DHT22;38546;48.170;11.724;2023-05-16T13:46:40;13.90;99.90
3488;DHT22;38546;48.170;11.724;2023-05-16T13:49:30;13.40;99.90
3488;DHT22;38546;48.170;11.724;2023-05-16T13:52:19;13.20;99.90
3488;DHT22;38546;48.170;11.724;2023-05-16T13:55:09;13.00;99.90
3488;DHT22;38546;48.170;11.724;2023-05-16T13:57:58;12.90;99.90
3488;DHT22;38546;48.170;11.724;2023-05-16T14:00:48;12.90;99.90
3488;DHT22;38546;48.170;11.724;2023-05-16T14:03:38;12.50;99.90
3488;DHT22;38546;48.170;11.724;2023-05-16T14:06:27;12.50;99.90
3488;DHT22;38546;48.170;11.724;2023-05-16T14:09:16;12.60;99.90
3488;DHT22;38546;48.170;11.724;2023-05-16T14:12:07;12.60;99.90
3488;DHT22;38546;48.170;11.724;2023-05-16T14:14:56;12.40;99.90
3488;DHT22;38546;48.170;11.724;2023-05-16T14:17:47;12.40;99.90
3488;DHT22;38546;48.170;11.724;2023-05-16T14:20:36;12.30;99.90
3488;DHT22;38546;48.170;11.724;2023-05-16T14:23:25;12.10;99.90
3488;DHT22;38546;48.170;11.724;2023-05-16T14:26:15;12.30;99.90
3488;DHT22;38546;48.170;11.724;2023-05-16T14:29:05;12.30;99.90
3488;DHT22;38546;48.170;11.724;2023-05-16T14:31:54;12.20;99.90
3488;DHT22;38546;48.170;11.724;2023-05-16T14:34:44;12.30;99.90
3488;DHT22;38546;48.170;11.724;2023-05-16T14:37:34;12.20;99.90
3488;DHT22;38546;48.170;11.724;2023-05-16T14:40:23;12.00;99.90
3488;DHT22;38546;48.170;11.724;2023-05-16T14:43:12;11.90;99.90
3488;DHT22;38546;48.170;11.724;2023-05-16T14:46:01;12.00;99.90
3488;DHT22;38546;48.170;11.724;2023-05-16T14:48:50;12.10;99.90
3488;DHT22;38546;48.170;11.724;2023-05-16T14:51:40;12.10;99.90
3488;DHT22;38546;48.170;11.724;2023-05-16T14:54:29;12.20;99.90
3488;DHT22;38546;48.170;11.724;2023-05-16T14:57:18;12.10;99.90
3488;DHT22;38546;48.170;11.724;2023-05-16T15:00:07;12.20;99.90
3488;DHT22;38546;48.170;11.724;2023-05-16T15:02:58;12.10;99.90
3488;DHT22;38546;48.170;11.724;2023-05-16T15:05:47;12.10;99.90
3488;DHT22;38546;48.170;11.724;2023-05-16T15:08:36;12.10;99.90
3488;DHT22;38546;48.170;11.724;2023-05-16T15:11:27;12.20;99.90
3488;DHT22;38546;48.170;11.724;2023-05-16T15:14:17;12.10;99.90
3488;DHT22;38546;48.170;11.724;2023-05-16T15:17:06;11.90;99.90
3488;DHT22;38546;48.170;11.724;2023-05-16T15:19:55;12.00;99.90
3488;DHT22;38546;48.170;11.724;2023-05-16T15:22:46;12.00;99.90
3488;DHT22;38546;48.170;11.724;2023-05-16T15:25:35;12.00;99.90
3488;DHT22;38546;48.170;11.724;2023-05-16T15:28:24;12.00;99.90
3488;DHT22;38546;48.170;11.724;2023-05-16T15:31:13;12.00;99.90
3488;DHT22;38546;48.170;11.724;2023-05-16T15:34:03;12.00;99.90
3488;DHT22;38546;48.170;11.724;2023-05-16T15:36:53;11.90;99.90
3488;DHT22;38546;48.170;11.724;2023-05-16T15:39:43;11.90;99.90
3488;DHT22;38546;48.170;11.724;2023-05-16T15:42:33;11.90;99.90
3488;DHT22;38546;48.170;11.724;2023-05-16T15:45:22;11.80;99.90
3488;DHT22;38546;48.170;11.724;2023-05-16T15:48:11;11.90;99.90
3488;DHT22;38546;48.170;11.724;2023-05-16T15:51:00;12.00;99.90
3488;DHT22;38546;48.170;11.724;2023-05-16T15:53:49;11.90;99.90
3488;DHT22;38546;48.170;11.724;2023-05-16T15:56:38;11.90;99.90
3488;DHT22;38546;48.170;11.724;2023-05-16T15:59:27;11.90;99.90
3488;DHT22;38546;48.170;11.724;2023-05-16T16:02:16;11.80;99.90
3488;DHT22;38546;48.170;11.724;2023-05-16T16:05:06;11.80;99.90
3488;DHT22;38546;48.170;11.724;2023-05-16T16:07:56;11.70;99.90
3488;DHT22;38546;48.170;11.724;2023-05-16T16:10:45;11.80;99.90
3488;DHT22;38546;48.170;11.724;2023-05-16T16:13:34;11.80;99.90
3488;DHT22;38546;48.170;11.724;2023-05-16T16:16:24;11.70;99.90
3488;DHT22;38546;48.170;11.724;2023-05-16T16:19:13;11.80;99.90
3488;DHT22;38546;48.170;11.724;2023-05-16T16:22:02;11.80;99.90
3488;DHT22;38546;48.170;11.724;2023-05-16T16:24:51;11.80;99.90
3488;DHT22;38546;48.170;11.724;2023-05-16T16:27:41;11.80;99.90
3488;DHT22;38546;48.170;11.724;2023-05-16T16:30:30;11.70;99.90
3488;DHT22;38546;48.170;11.724;2023-05-16T16:33:19;11.70;99.90
3488;DHT22;38546;48.170;11.724;2023-05-16T16:36:08;11.70;99.90
3488;DHT22;38546;48.170;11.724;2023-05-16T16:38:58;11.60;99.90
3488;DHT22;38546;48.170;11.724;2023-05-16T16:41:47;11.70;99.90
3488;DHT22;38546;48.170;11.724;2023-05-16T16:44:36;11.70;99.90
3488;DHT22;38546;48.170;11.724;2023-05-16T16:47:25;11.80;99.90
3488;DHT22;38546;48.170;11.724;2023-05-16T16:50:14;11.70;99.90
3488;DHT22;38546;48.170;11.724;2023-05-16T16:53:03;11.70;99.90
3488;DHT22;38546;48.170;11.724;2023-05-16T16:55:52;11.80;99.90
3488;DHT22;38546;48.170;11.724;2023-05-16T16:58:41;11.80;99.90
3488;DHT22;38546;48.170;11.724;2023-05-16T17:01:30;11.90;99.90
3488;DHT22;38546;48.170;11.724;2023-05-16T17:04:20;11.90;99.90
3488;DHT22;38546;48.170;11.724;2023-05-16T17:07:10;11.80;99.90
3488;DHT22;38546;48.170;11.724;2023-05-16T17:09:59;11.80;99.90
3488;DHT22;38546;48.170;11.724;2023-05-16T17:12:48;11.90;99.90
3488;DHT22;38546;48.170;11.724;2023-05-16T17:15:37;11.90;99.90
3488;DHT22;38546;48.170;11.724;2023-05-16T17:18:26;11.90;99.90
3488;DHT22;38546;48.170;11.724;2023-05-16T17:21:15;11.90;99.90
3488;DHT22;38546;48.170;11.724;2023-05-16T17:24:06;12.00;99.90
3488;DHT22;38546;48.170;11.724;2023-05-16T17:26:55;11.90;99.90
3488;DHT22;38546;48.170;11.724;2023-05-16T17:29:45;11.90;99.90
3488;DHT22;38546;48.170;11.724;2023-05-16T17:32:34;11.90;99.90
3488;DHT22;38546;48.170;11.724;2023-05-16T17:35:23;12.00;99.90
3488;DHT22;38546;48.170;11.724;2023-05-16T17:38:12;12.00;99.90
3488;DHT22;38546;48.170;11.724;2023-05-16T17:41:02;12.00;99.90
3488;DHT22;38546;48.170;11.724;2023-05-16T17:43:51;12.10;99.90
3488;DHT22;38546;48.170;11.724;2023-05-16T17:46:40;12.20;99.90
3488;DHT22;38546;48.170;11.724;2023-05-16T17:49:30;12.10;99.90
3488;DHT22;38546;48.170;11.724;2023-05-16T17:52:19;12.10;99.90
3488;DHT22;38546;48.170;11.724;2023-05-16T17:55:10;12.00;99.90
3488;DHT22;38546;48.170;11.724;2023-05-16T17:57:59;12.00;99.90
3488;DHT22;38546;48.170;11.724;2023-05-16T18:00:49;11.90;99.90
3488;DHT22;38546;48.170;11.724;2023-05-16T18:03:38;11.80;99.90